createdAt,value
2018-12-12T00:00:43.555Z,6.63
2018-12-12T00:05:49.056Z,6.63
2018-12-12T00:10:52.636Z,6.17
2018-12-12T00:15:56.271Z,6.70
2018-12-12T00:20:59.730Z,7.13
2018-12-12T00:26:03.262Z,7.30
2018-12-12T00:31:06.719Z,6.93
2018-12-12T00:36:10.119Z,6.90
2018-12-12T00:41:14.014Z,7.30
2018-12-12T00:46:17.543Z,7.20
2018-12-12T00:51:21.121Z,6.73
2018-12-12T00:56:24.875Z,7.03
2018-12-12T01:01:28.532Z,6.90
2018-12-12T01:06:32.024Z,6.23
2018-12-12T01:11:41.257Z,6.63
2018-12-12T01:16:44.747Z,7.27
2018-12-12T01:21:48.556Z,6.37
2018-12-12T01:26:52.147Z,6.50
2018-12-12T01:31:55.628Z,6.27
2018-12-12T01:36:59.123Z,7.27
2018-12-12T01:42:02.895Z,6.30
2018-12-12T01:47:06.617Z,6.60
2018-12-12T01:52:10.268Z,7.03
2018-12-12T01:57:13.870Z,6.10
2018-12-12T02:02:17.406Z,7.13
2018-12-12T02:07:20.990Z,6.23
2018-12-12T02:12:24.470Z,6.57
2018-12-12T02:17:27.943Z,6.37
2018-12-12T02:22:31.445Z,6.63
2018-12-12T02:27:35.028Z,6.70
2018-12-12T02:32:38.560Z,7.57
2018-12-12T02:37:42.110Z,7.20
2018-12-12T02:42:45.741Z,7.93
2018-12-12T02:47:49.406Z,7.37
2018-12-12T02:52:53.083Z,7.10
2018-12-12T02:57:56.592Z,6.60
2018-12-12T03:03:00.349Z,7.40
2018-12-12T03:08:03.880Z,7.33
2018-12-12T03:13:07.364Z,7.23
2018-12-12T03:18:11.869Z,6.97
2018-12-12T03:23:15.538Z,6.77
2018-12-12T03:28:23.358Z,7.37
2018-12-12T03:33:26.861Z,7.30
2018-12-12T03:38:31.482Z,7.00
2018-12-12T03:43:35.089Z,7.00
2018-12-12T03:48:39.692Z,6.23
2018-12-12T03:53:43.306Z,6.40
2018-12-12T03:58:46.777Z,6.90
2018-12-12T04:03:50.984Z,6.87
2018-12-12T04:08:54.425Z,6.73
2018-12-12T04:13:58.111Z,7.00
2018-12-12T04:19:01.802Z,6.50
2018-12-12T04:24:07.535Z,6.77
2018-12-12T04:29:10.974Z,6.40
2018-12-12T04:34:14.490Z,6.77
2018-12-12T04:39:17.941Z,6.77
2018-12-12T04:44:21.418Z,7.27
2018-12-12T04:49:24.902Z,6.47
2018-12-12T04:54:29.029Z,6.60
2018-12-12T04:59:32.955Z,6.07
2018-12-12T05:04:37.142Z,6.60
2018-12-12T05:09:40.647Z,7.13
2018-12-12T05:14:44.184Z,6.20
2018-12-12T05:19:47.729Z,6.43
2018-12-12T05:24:51.425Z,6.70
2018-12-12T05:29:54.993Z,6.87
2018-12-12T05:34:58.693Z,6.93
2018-12-12T05:40:02.419Z,7.27
2018-12-12T05:45:06.782Z,6.60
2018-12-12T05:50:10.282Z,6.67
2018-12-12T05:55:13.814Z,7.47
2018-12-12T06:00:17.364Z,5.97
2018-12-12T06:05:21.054Z,6.00
2018-12-12T06:10:24.503Z,6.87
2018-12-12T06:15:28.121Z,5.83
2018-12-12T06:20:31.711Z,6.10
2018-12-12T06:25:35.159Z,5.90
2018-12-12T06:30:38.626Z,6.20
2018-12-12T06:35:42.106Z,6.07
2018-12-12T06:40:45.956Z,6.27
2018-12-12T06:45:49.592Z,5.90
2018-12-12T06:50:53.077Z,5.30
2018-12-12T06:55:56.503Z,5.60
2018-12-12T07:01:00.880Z,5.33
2018-12-12T07:06:04.468Z,5.43
2018-12-12T07:11:08.060Z,5.40
2018-12-12T07:16:11.635Z,5.37
2018-12-12T07:21:15.169Z,4.97
2018-12-12T07:26:18.824Z,4.70
2018-12-12T07:31:22.292Z,5.20
2018-12-12T07:36:25.976Z,5.20
2018-12-12T07:41:29.939Z,5.23
2018-12-12T07:46:36.268Z,5.37
2018-12-12T07:51:41.923Z,5.10
2018-12-12T07:56:47.566Z,5.50
2018-12-12T08:01:51.025Z,4.90
2018-12-12T08:06:54.634Z,4.87
2018-12-12T08:11:58.568Z,5.53
2018-12-12T08:17:02.116Z,4.70
2018-12-12T08:22:06.399Z,5.50
2018-12-12T08:27:11.193Z,5.10
2018-12-12T08:32:14.812Z,5.37
2018-12-12T08:37:18.299Z,5.27
2018-12-12T08:42:21.790Z,5.70
2018-12-12T08:47:25.361Z,5.20
2018-12-12T08:52:28.951Z,5.37
2018-12-12T08:57:32.679Z,5.53
2018-12-12T09:02:36.480Z,5.90
2018-12-12T09:07:40.301Z,5.30
2018-12-12T09:12:43.843Z,5.90
2018-12-12T09:17:47.403Z,5.47
2018-12-12T09:22:50.991Z,5.30
2018-12-12T09:27:54.615Z,5.93
2018-12-12T09:33:00.295Z,5.83
2018-12-12T09:38:22.711Z,5.87
2018-12-12T09:43:26.254Z,6.17
2018-12-12T09:48:29.913Z,6.20
2018-12-12T09:53:33.432Z,6.60
2018-12-12T09:58:37.498Z,6.83
2018-12-12T10:03:41.005Z,7.00
2018-12-12T10:08:44.540Z,7.20
2018-12-12T10:13:47.988Z,7.57
2018-12-12T10:18:51.457Z,7.67
2018-12-12T10:23:55.006Z,6.70
2018-12-12T10:28:58.884Z,7.20
2018-12-12T10:34:02.567Z,7.47
2018-12-12T10:39:08.834Z,7.67
2018-12-12T10:44:13.383Z,7.60
2018-12-12T10:49:16.895Z,7.70
2018-12-12T10:54:20.402Z,7.97
2018-12-12T10:59:23.965Z,8.27
2018-12-12T11:04:27.812Z,8.37
2018-12-12T11:09:31.638Z,7.97
2018-12-12T11:14:35.198Z,8.10
2018-12-12T11:19:39.048Z,7.93
2018-12-12T11:24:42.534Z,7.73
2018-12-12T11:29:46.025Z,7.23
2018-12-12T11:34:49.596Z,9.00
2018-12-12T11:39:53.052Z,8.43
2018-12-12T11:44:56.510Z,8.63
2018-12-12T11:50:00.141Z,7.93
2018-12-12T11:55:04.863Z,8.27
2018-12-12T12:00:09.665Z,7.70
2018-12-12T12:05:13.738Z,7.63
2018-12-12T12:10:17.894Z,7.80
2018-12-12T12:15:21.548Z,8.07
2018-12-12T12:20:25.248Z,7.83
2018-12-12T12:25:29.017Z,8.40
2018-12-12T12:30:32.942Z,7.43
2018-12-12T12:35:36.521Z,8.13
2018-12-12T12:40:40.215Z,8.23
2018-12-12T12:45:43.693Z,8.63
2018-12-12T12:50:47.260Z,7.50
2018-12-12T12:55:52.437Z,7.80
2018-12-12T13:00:56.320Z,7.77
2018-12-12T13:05:59.975Z,7.53
2018-12-12T13:11:03.759Z,7.83
2018-12-12T13:16:07.339Z,8.47
2018-12-12T13:21:10.946Z,7.70
2018-12-12T13:26:14.468Z,8.10
2018-12-12T13:31:18.172Z,7.30
2018-12-12T13:36:21.722Z,6.20
2018-12-12T13:41:25.221Z,6.60
2018-12-12T13:46:30.387Z,7.70
2018-12-12T13:51:33.998Z,7.70
2018-12-12T13:56:37.503Z,7.50
2018-12-12T14:01:41.019Z,7.53
2018-12-12T14:06:44.463Z,6.77
2018-12-12T14:11:48.069Z,7.20
2018-12-12T14:16:51.789Z,6.27
2018-12-12T14:21:55.538Z,6.67
2018-12-12T14:28:23.531Z,6.87
2018-12-12T14:33:27.343Z,6.03
2018-12-12T14:38:30.952Z,6.00
2018-12-12T14:43:34.591Z,6.07
2018-12-12T14:48:38.364Z,6.27
2018-12-12T14:53:42.007Z,5.63
2018-12-12T14:58:46.564Z,5.80
2018-12-12T15:03:50.330Z,5.50
2018-12-12T15:08:54.014Z,5.23
2018-12-12T15:13:57.506Z,6.03
2018-12-12T15:19:01.070Z,6.27
2018-12-12T15:24:04.738Z,5.70
2018-12-12T15:29:08.307Z,5.80
2018-12-12T15:34:11.817Z,6.63
2018-12-12T15:39:15.470Z,6.53
2018-12-12T15:44:19.458Z,5.97
2018-12-12T15:49:22.906Z,6.00
2018-12-12T15:54:26.396Z,6.50
2018-12-12T15:59:36.442Z,6.40
2018-12-12T16:04:40.279Z,6.90
2018-12-12T16:09:43.868Z,6.33
2018-12-12T16:14:49.338Z,7.07
2018-12-12T16:19:52.883Z,6.97
2018-12-12T16:24:57.565Z,7.20
2018-12-12T16:30:01.258Z,8.07
2018-12-12T16:35:07.340Z,7.73
2018-12-12T16:40:10.810Z,7.77
2018-12-12T16:45:14.413Z,8.20
2018-12-12T16:50:18.927Z,7.40
2018-12-12T16:55:22.447Z,7.67
2018-12-12T17:00:26.012Z,7.67
2018-12-12T17:05:29.687Z,8.00
2018-12-12T17:10:33.236Z,7.10
2018-12-12T17:15:36.891Z,7.73
2018-12-12T17:20:40.424Z,6.63
2018-12-12T17:25:43.958Z,7.00
2018-12-12T17:30:47.529Z,7.13
2018-12-12T17:35:51.114Z,6.97
2018-12-12T17:40:54.610Z,6.57
2018-12-12T17:45:58.071Z,7.03
2018-12-12T17:51:01.557Z,6.90
2018-12-12T17:56:05.088Z,7.07
2018-12-12T18:01:08.736Z,6.93
2018-12-12T18:06:14.344Z,7.07
2018-12-12T18:11:17.882Z,6.63
2018-12-12T18:16:21.626Z,6.43
2018-12-12T18:21:25.200Z,6.53
2018-12-12T18:26:30.765Z,6.50
2018-12-12T18:31:34.322Z,5.73
2018-12-12T18:36:44.110Z,5.87
2018-12-12T18:41:49.021Z,6.40
2018-12-12T18:47:11.313Z,5.87
2018-12-12T18:52:14.773Z,6.27
2018-12-12T18:57:18.327Z,6.57
2018-12-12T19:02:21.861Z,6.50
2018-12-12T19:07:25.570Z,7.27
2018-12-12T19:12:29.221Z,6.70
2018-12-12T19:17:32.922Z,6.63
2018-12-12T19:22:36.535Z,7.50
2018-12-12T19:27:40.127Z,7.23
2018-12-12T19:32:43.999Z,6.87
2018-12-12T19:37:47.714Z,7.20
2018-12-12T19:42:51.514Z,7.30
2018-12-12T19:53:08.737Z,7.90
2018-12-12T19:58:12.271Z,8.10
2018-12-12T20:03:15.791Z,7.83
2018-12-12T20:08:19.642Z,7.60
2018-12-12T20:13:23.214Z,7.90
2018-12-12T20:18:26.792Z,7.43
2018-12-12T20:23:30.329Z,7.93
2018-12-12T20:28:33.876Z,7.93
2018-12-12T20:33:37.361Z,8.70
2018-12-12T20:38:41.028Z,8.87
2018-12-12T20:43:44.693Z,8.50
2018-12-12T20:48:48.351Z,7.90
2018-12-12T20:53:52.055Z,8.50
2018-12-12T20:58:55.683Z,8.60
2018-12-12T21:03:59.533Z,8.17
2018-12-12T21:09:06.027Z,8.90
2018-12-12T21:14:09.828Z,9.53
2018-12-12T21:19:14.743Z,9.33
2018-12-12T21:24:18.330Z,9.97
2018-12-12T21:29:21.983Z,9.07
2018-12-12T21:34:25.867Z,9.17
2018-12-12T21:39:29.852Z,8.73
2018-12-12T21:44:33.581Z,9.20
2018-12-12T21:49:37.477Z,8.17
2018-12-12T21:54:40.929Z,8.47
2018-12-12T21:59:44.999Z,9.68
2018-12-12T22:04:48.558Z,6.43
2018-12-12T22:09:52.317Z,6.63
2018-12-12T22:14:56.383Z,6.10
2018-12-12T22:20:00.094Z,5.10
2018-12-12T22:25:03.766Z,6.30
2018-12-12T22:30:07.871Z,5.57
2018-12-12T22:35:11.384Z,3.43
2018-12-12T22:40:15.312Z,4.17
2018-12-12T22:45:18.977Z,4.00
2018-12-12T22:50:22.627Z,3.70
2018-12-12T22:55:26.337Z,3.97
2018-12-12T23:00:35.619Z,4.07
2018-12-12T23:05:41.335Z,4.17
2018-12-12T23:10:45.039Z,3.70
2018-12-12T23:15:48.658Z,4.73
2018-12-12T23:20:52.168Z,4.10
2018-12-12T23:25:55.628Z,3.83
2018-12-12T23:30:59.551Z,4.10
2018-12-12T23:36:03.123Z,3.50
2018-12-12T23:41:06.644Z,3.63
2018-12-12T23:46:10.116Z,4.07
2018-12-12T23:51:13.654Z,4.07
2018-12-12T23:56:17.162Z,4.13
